Stream Gauges

 

John Redmond Lake



    
SHEF ID:       JRLK1     John Redmond Lake
STATION TYPE:  RESERVOIR
Normal Pool:  Bottom =  1026.00, Top =  1039.00

               PRECIP ELEVATION   STORAGE    INFLOW   RELEASE  AIR-TEMP  WIND-DIRWIND-SPEED REL-HUMID SOLAR-RAD   VOLTAGE  BAT-LOAD
                   in        ft     ac-ft       cfs       cfs         F       deg       mph         %      W/m2      volt      volt
              Ccp-Rev   Ccp-Rev   Ccp-Rev  Regi-Rev  Regi-Rev   Ccp-Rev   Ccp-Rev   Ccp-Rev   Ccp-Rev   Ccp-Rev   Ccp-Rev   Ccp-Rev
(US/Central)
05/29 00:00      0.00   1054.07    242099      1039      6041     70.57    255.60      6.70     60.22      0.00     13.85     13.21
05/29 01:00      0.00   1054.05    241722      1050      6039     69.13    253.50      5.00     60.73      0.00     13.85     13.29
05/29 02:00      0.00   1054.04    241534      1060      6036     68.67    256.40      4.60     59.42      0.00     13.85     13.21
05/29 03:00      0.00   1054.01    240968      1867      6033     67.51    265.80      4.60     63.48      0.00     13.85     13.29
05/29 04:00      0.00   1053.98    240420      1571      6029     65.98    240.60      2.80     65.64      0.00     13.85     13.29
05/29 05:00      0.00   1053.98    240420      2183      6026     65.37    255.10      5.60     64.43      0.00     13.85     13.29
05/29 06:00      0.00   1053.95    239879      2359      6024     66.99    269.70     10.00     60.27      0.00     13.85     13.29
05/29 07:00      0.00   1053.94    239699      2243      6021     65.28    286.30     12.00     62.07     17.50     13.85     13.29
05/29 08:00      0.00   1053.92    239339      1181      6019     64.98    285.90     13.10     63.06    186.10     13.85     13.29
05/29 09:00      0.00   1053.90    238979      1221      6016     66.56    307.80     13.00     63.40    435.00     13.85     13.29
05/29 10:00      0.00   1053.87    238439       782      6012     69.49    325.00     11.70     57.41    635.60     13.85     13.29
05/29 11:00      0.00   1053.84    237898       778      6008     71.56    318.50      9.30     54.44    806.10     13.85     13.21
05/29 12:00      0.00   1053.82    237538      1502      6004     73.18    294.00      8.00     51.55    935.40     13.85     13.29
05/29 13:00      0.00   1053.80    237178      1789      6001     74.55    282.40      7.80     50.70   1009.50     13.85     13.29
05/29 14:00      0.00   1053.79    236998      1966      5999     76.08    276.90      5.90     49.18   1023.10     13.85     13.29
05/29 15:00      0.00   1053.77    236638      1637      5996     78.31    265.60      4.80     39.14    982.20     13.86     13.29
05/29 16:00      0.00   1053.75    236277      1634      5993     79.16    313.50      5.70     37.98    886.10     13.86     13.05
05/29 17:00      0.00   1053.72    235737      1195      5990     78.57    326.70      8.50     44.33    717.10     13.86     13.29
05/29 18:00      0.00   1053.70    235377      1193      5986     78.55    309.40      9.90     43.71    561.60     13.86     13.29
05/29 19:00      0.00   1053.68    235017      1300      5983     78.08    314.40     10.00     46.09    347.80     13.86     13.29
05/29 20:00      0.00   1053.66    234657      -901      -901     77.36    334.30      7.20     50.39    143.80     13.86     13.21
05/29 21:00      0.00   1053.63    234116      ----      ----     76.08    348.50      4.80     54.31      7.10     13.86     13.29
05/29 22:00      ----      ----      ----      ----      ----      ----      ----      ----      ----      ----      ----      ----
05/29 23:00      ----      ----      ----      ----      ----      ----      ----      ----      ----      ----      ----      ----

    

 

Burlington




 

Iola



    
SHEF ID:       IOLK1     NEOSHO RIVER NEAR IOLA
STATION TYPE:  

               PRECIP     STAGE  RIV-FLOW  AIR-TEMP  BAT-LOAD
                   in        ft       cfs         F      volt
              Ccp-Rev   Ccp-Rev   Ccp-Rev   Ccp-Rev   Ccp-Rev
(US/Central)
05/29 00:00      0.00      9.89      7760     64.40     12.73
05/29 01:00      0.00      9.91      7840     62.86     12.73
05/29 02:00      0.00      9.89      7760     61.78     12.65
05/29 03:00      0.00      9.89      7760     60.29     12.65
05/29 04:00      0.00      9.90      7800     58.52     12.65
05/29 05:00      0.00      9.89      7760     56.92     12.57
05/29 06:00      0.00      9.87      7670     55.37     12.57
05/29 07:00      0.00      9.91      7840     59.80     12.57
05/29 08:00      0.00      9.88      7720     66.58     12.65
05/29 09:00      0.00      9.87      7670     74.77     13.29
05/29 10:00      0.00      9.88      7720     78.97     13.44
05/29 11:00      0.00      9.88      7720     81.94     13.37
05/29 12:00      0.00      9.88      7720     85.12     13.21
05/29 13:00      0.00      9.88      7720     86.15     13.05
05/29 14:00      0.00      9.88      7720     87.16     13.05
05/29 15:00      0.00      9.88      7720     87.62     12.97
05/29 16:00      0.00      9.89      7760     88.17     13.05
05/29 17:00      0.00      9.90      7800     88.33     13.05
05/29 18:00      0.00      9.88      7720     86.36     13.05
05/29 19:00      0.00      9.88      7720     85.16     12.89
05/29 20:00      0.00      9.89      7760     82.04     12.89
05/29 21:00      0.00      9.89      7760     75.61     12.89
05/29 22:00      ----      ----      ----      ----      ----
05/29 23:00      ----      ----      ----      ----      ----

    

 

Chanute



    
SHEF ID:       CNUK1     NEOSHO R NR CHANUTE, KS
STATION TYPE:  

               PRECIP     STAGE  RIV-FLOW   VOLTAGE  BAT-LOAD
                   in        ft       cfs      volt      volt
              Ccp-Rev   Ccp-Rev   Ccp-Rev   Ccp-Rev   Ccp-Rev
(US/Central)
05/29 00:00      0.00     13.84      7415     12.73     12.65
05/29 01:00      0.00     13.83      7398     12.73     12.57
05/29 02:00      0.00     13.83      7398     12.73     12.57
05/29 03:00      0.00     13.82      7381     12.73     12.57
05/29 04:00      0.00     13.83      7398     12.65     12.49
05/29 05:00      0.00     13.83      7398     12.65     12.49
05/29 06:00      0.00     13.82      7381     12.65     12.49
05/29 07:00      0.00     13.81      7364     12.65     12.49
05/29 08:00      0.00     13.81      7364     12.65     12.49
05/29 09:00      0.00     13.80      7347     12.65     12.49
05/29 10:00      0.00     13.78      7314     12.73     12.57
05/29 11:00      0.00     13.78      7314     12.89     12.65
05/29 12:00      0.00     13.77      7297     14.00     12.89
05/29 13:00      0.00     13.78      7314     13.53     13.44
05/29 14:00      0.00     13.77      7297     13.53     13.53
05/29 15:00      0.00     13.76      7280     13.60     13.44
05/29 16:00      0.00     13.77      7297     13.76     13.53
05/29 17:00      0.00     13.76      7280     13.76     13.37
05/29 18:00      0.00     13.76      7280     13.76     13.37
05/29 19:00      0.00     13.77      7297     13.05     13.13
05/29 20:00      0.00     13.76      7280     12.89     12.81
05/29 21:00      0.00     13.76      ----     12.81     12.65
05/29 22:00      ----      ----      ----      ----      ----
05/29 23:00      ----      ----      ----      ----      ----

    

 

Parsons



    
SHEF ID:       PPFK1     NEOSHO RIVER NEAR PARSONS 8E
STATION TYPE:  

               PRECIP     STAGE  RIV-FLOW ELEVATION  BAT-LOAD
                   in        ft       cfs        ft      volt
              Ccp-Rev   Ccp-Rev   Ccp-Rev   Ccp-Rev   Ccp-Rev
(US/Central)
05/29 00:00      0.00     12.50      7220      ----     12.89
05/29 01:00      0.00     12.50      7220      ----     12.89
05/29 02:00      0.00     12.47      7170      ----     12.89
05/29 03:00      0.00     12.47      7170      ----     12.89
05/29 04:00      0.00     12.48      7180      ----     12.83
05/29 05:00      0.00     12.47      7170      ----     12.83
05/29 06:00      0.00     12.46      7150      ----     12.77
05/29 07:00      0.00     12.45      7130      ----     12.77
05/29 08:00      0.00     12.46      7150      ----     12.83
05/29 09:00      0.00     12.47      7170      ----     13.30
05/29 10:00      0.00     12.45      7130      ----     13.53
05/29 11:00      0.00     12.44      7110      ----     13.83
05/29 12:00      0.00     12.44      7110      ----     14.35
05/29 13:00      0.00     12.42      7080      ----     14.41
05/29 14:00      0.00     12.42      7080      ----     13.59
05/29 15:00      0.00     12.43      7090      ----     13.24
05/29 16:00      0.00     12.43      7090      ----     13.18
05/29 17:00      0.00     12.42      7080      ----     13.18
05/29 18:00      0.00     12.42      7080      ----     13.36
05/29 19:00      0.00     12.42      7080      ----     13.12
05/29 20:00      0.00     12.41      7060      ----     13.07
05/29 21:00      0.00     12.42      7080      ----     13.07
05/29 22:00      ----      ----      ----      ----      ----
05/29 23:00      ----      ----      ----      ----      ----

    

 

Oswego



    
SHEF ID:       OSOK1     Oswego hwy 160
STATION TYPE:  

               PRECIP     STAGE  RIV-FLOW   VOLTAGE  BAT-LOAD
                   in        ft       cfs      volt      volt
              Ccp-Rev   Ccp-Rev   Ccp-Rev   Ccp-Rev   Ccp-Rev
(US/Central)
05/29 00:00      0.00     16.58      8942     12.57     12.49
05/29 01:00      0.00     16.53      8872     12.57     12.41
05/29 02:00      0.00     16.46      8774     12.57     12.41
05/29 03:00      0.00     16.38      8662     12.57     12.41
05/29 04:00      0.00     16.32      8579     12.57     12.41
05/29 05:00      0.00     16.28      8523     12.57     12.41
05/29 06:00      0.00     16.22      8439     12.49     12.41
05/29 07:00      0.00     16.17      8369     12.49     12.41
05/29 08:00      0.00     16.11      8285     12.65     12.49
05/29 09:00      0.00     16.08      8243     13.68     13.21
05/29 10:00      0.00     16.03      8173     13.37     13.29
05/29 11:00      0.00     16.00      8131     13.84     13.29
05/29 12:00      0.00     15.98      8103     13.92     13.53
05/29 13:00      0.00     15.94      8047     13.84     13.68
05/29 14:00      0.00     15.93      8033     13.44     13.84
05/29 15:00      0.00     15.90      7991     14.08     12.89
05/29 16:00      0.00     15.86      7936     13.44     12.89
05/29 17:00      0.00     15.86      7936     13.68     12.89
05/29 18:00      0.00     15.83      7894     13.44     12.89
05/29 19:00      0.00     15.81      7866     12.81     12.81
05/29 20:00      0.00     15.81      7866     12.65     12.65
05/29 21:00      ----      ----      ----      ----      ----
05/29 22:00      ----      ----      ----      ----      ----
05/29 23:00      ----      ----      ----      ----      ----

    

 

Commerce



    
SHEF ID:       COMO2     Neosho River nr Commerce, OK
STATION TYPE:  

               PRECIP     STAGE  STAGE(2)  RIV-FLOW  BAT-LOAD
                   in        ft        ft       cfs      volt
              Ccp-Rev   Ccp-Rev   Ccp-Rev   Ccp-Rev   Ccp-Rev
(US/Central)
05/29 00:00      0.00      8.90      8.74      9984     12.65
05/29 01:00      0.00      8.92      8.73     10018     12.65
05/29 02:00      0.00      8.91      8.74     10001     12.57
05/29 03:00      0.00      8.89      8.73      9967     12.57
05/29 04:00      0.00      8.88      8.70      9950     12.57
05/29 05:00      0.00      8.86      8.70      9916     12.57
05/29 06:00      0.00      8.80      8.64      9814     12.57
05/29 07:00      0.00      8.77      8.60      9764     12.57
05/29 08:00      0.00      8.73      8.58      9696     12.73
05/29 09:00      0.00      8.66      8.49      9577     12.97
05/29 10:00      0.00      8.62      8.47      9510     13.05
05/29 11:00      0.00      8.58      8.43      9442     13.13
05/29 12:00      0.00      8.53      8.39      9358     12.97
05/29 13:00      0.00      8.48      8.34      9273     12.81
05/29 14:00      0.00      8.43      8.29      9189     12.73
05/29 15:00      0.00      8.38      8.23      9105     12.73
05/29 16:00      0.00      8.33      8.19      9021     12.73
05/29 17:00      0.00      8.31      8.14      8987     12.73
05/29 18:00      0.00      8.26      8.12      8903     12.73
05/29 19:00      0.00      8.22      8.09      8836     12.65
05/29 20:00      0.00      8.20      8.05      8802     12.65
05/29 21:00      0.00      8.17      8.03      8752     12.65
05/29 22:00      ----      ----      ----      ----      ----
05/29 23:00      ----      ----      ----      ----      ----

    

 

Spring River , Quapaw



    
SHEF ID:       QUAO2     Spring River near Quapaw, OK
STATION TYPE:  

               PRECIP     STAGE  STAGE(2)  RIV-FLOW  BAT-LOAD
                   in        ft        ft       cfs      volt
              Ccp-Rev   Ccp-Rev   Ccp-Rev   Ccp-Rev   Ccp-Rev
(US/Central)
05/29 00:00      0.00     12.29     12.06     10874     12.41
05/29 01:00      0.00     12.30     12.04     10896     12.41
05/29 02:00      0.00     12.30     12.02     10896     12.41
05/29 03:00      0.00     12.28     12.02     10852     12.41
05/29 04:00      0.00     12.28     12.02     10852     12.41
05/29 05:00      0.00     12.30     12.00     10896     12.41
05/29 06:00      0.00     12.31     12.04     10918     12.41
05/29 07:00      0.00     12.31     12.03     10918     12.33
05/29 08:00      0.00     12.30     12.03     10896     12.41
05/29 09:00      0.00     12.30     12.04     10896     12.57
05/29 10:00      0.00     12.26     11.97     10809     12.81
05/29 11:00      0.00     12.20     11.98     10679     13.37
05/29 12:00      0.00     12.14     11.92     10549     13.29
05/29 13:00      0.00     12.06     11.85     10378     13.13
05/29 14:00      0.00     11.99     11.76     10229     13.05
05/29 15:00      0.00     11.91     11.69     10059     13.05
05/29 16:00      0.00     11.81     11.61      9849     13.13
05/29 17:00      0.00     11.72     11.52      9659     12.97
05/29 18:00      0.00     11.62     11.41      9449     13.05
05/29 19:00      0.00     11.52     11.29      9241     13.05
05/29 20:00      0.00     11.42     11.16      9035     12.97
05/29 21:00      0.00     11.31     11.09      8811     12.65
05/29 22:00      ----      ----      ----      ----      ----
05/29 23:00      ----      ----      ----      ----      ----

    

 

Elk River, Tiff City



    
SHEF ID:       TIFM7     Elk River near Tiff City, Mo
STATION TYPE:  

               PRECIP     STAGE  STAGE(2)  RIV-FLOW   VOLTAGE
                   in        ft        ft       cfs      volt
              Ccp-Rev   Ccp-Rev   Ccp-Rev   Ccp-Rev   Ccp-Rev
(US/Central)
05/29 00:00      0.00      7.03      0.00      2801     12.70
05/29 01:00      0.00      6.99      0.00      2760     12.60
05/29 02:00      0.00      6.92      0.00      2689     12.60
05/29 03:00      0.00      6.86      0.00      2629     12.60
05/29 04:00      0.00      6.80      0.00      2570     12.60
05/29 05:00      0.00      6.73      0.00      2501     12.60
05/29 06:00      0.00      6.67      0.00      2444     12.50
05/29 07:00      0.00      6.60      0.00      2377     12.60
05/29 08:00      0.00      6.54      0.00      2321     12.90
05/29 09:00      0.00      6.49      0.00      2275     13.20
05/29 10:00      0.00      6.44      0.00      2229     13.30
05/29 11:00      0.00      6.38      0.00      2175     13.80
05/29 12:00      0.00      6.34      0.00      2139     14.20
05/29 13:00      0.00      6.30      0.00      2104     14.00
05/29 14:00      0.00      6.24      0.00      2051     14.10
05/29 15:00      0.00      6.20      0.00      2017     14.00
05/29 16:00      0.00      6.16      0.00      1983     13.40
05/29 17:00      0.00      6.12      0.00      1949     13.00
05/29 18:00      0.00      6.09      0.00      1923     12.80
05/29 19:00      0.00      6.04      0.00      1882     12.80
05/29 20:00      0.00      6.01      0.00      1857     12.80
05/29 21:00      0.00      5.97      0.00      ----     12.70
05/29 22:00      ----      ----      ----      ----      ----
05/29 23:00      ----      ----      ----      ----      ----

    

 

Grand Lake, Pensacola Dam



    
SHEF ID:       PENO2     Lake O' the Cherokees at Langley
STATION TYPE:  RESERVOIR

               PRECIP ELEVATION   STORAGE    INFLOW   RELEASE  AIR-TEMP  WIND-DIRWIND-SPEED REL-HUMID SOLAR-RAD   VOLTAGE  BAT-LOAD
                   in        ft     ac-ft       cfs       cfs         F       deg       mph         %      W/m2      volt      volt
              Ccp-Rev   Ccp-Rev   Ccp-Rev  Regi-Rev  Regi-Rev   Ccp-Rev   Ccp-Rev   Ccp-Rev   Ccp-Rev   Ccp-Rev   Ccp-Rev   Ccp-Rev
(US/Central)
05/29 00:00      0.00    750.78   1786648      -901      -901     66.27    157.05      1.19     79.70      0.00     12.79     12.57
05/29 01:00      0.00    750.78   1786648      -901      -901     65.19    140.39      1.39     83.78      0.00     12.77     12.57
05/29 02:00      0.00    750.80   1787680      -901      -901     63.43    120.06      1.45     88.12      0.00     12.76     12.49
05/29 03:00      0.00    750.80   1787680      -901      -901     62.65    132.19      1.43     89.53      0.00     12.75     12.49
05/29 04:00      0.00    750.81   1788196      -901      -901     62.74    123.83      1.47     87.95      0.00     12.74     12.49
05/29 05:00      0.00    750.82   1788712      -901      -901     61.97    119.99      1.69     89.51      0.00     12.73     12.49
05/29 06:00      0.00    750.83   1789228      -901      -901     61.99    125.75      1.55     89.49      0.00     12.72     12.49
05/29 07:00      0.00    750.84   1789744      -901      -901     62.19    136.09      1.43     88.60     32.01     12.71     12.41
05/29 08:00      0.00    750.84   1789744      -901      -901     64.98    147.13      1.96     82.73    155.49     12.70     12.41
05/29 09:00      0.00    750.84   1789744      -901      -901     68.67    175.22      2.95     76.35    331.19     12.70     12.41
05/29 10:00      0.00    750.84   1789744      -901      -901     73.00    180.37      3.57     63.26    560.66     12.70     12.41
05/29 11:00      0.00    750.85   1790260      -901      -901     76.03    193.25      3.91     56.77    715.17     12.70     12.41
05/29 12:00      0.00    750.84   1789744      -901      -901     78.62    213.44      3.38     52.76    824.37     12.71     12.41
05/29 13:00      0.00    750.85   1790260      -901      -901     80.73    233.76      4.29     43.00    904.27     12.71     12.41
05/29 14:00      0.00    750.86   1790776      -901      -901     81.99    249.16      4.45     38.83    918.45     12.71     12.41
05/29 15:00      0.00    750.87   1791292      -901      -901     83.61    222.37      4.20     34.74    874.55     12.71     12.41
05/29 16:00      0.00    750.85   1790260      -901      -901     84.99    193.77      4.60     31.31    783.98     13.39     13.05
05/29 17:00      0.00    750.85   1790260      -901      -901     85.77    182.19      4.35     30.29    643.37     13.47     12.97
05/29 18:00      0.00    750.88   1791808      -901      -901     85.73    181.86      3.79     31.40    402.38     13.51     12.97
05/29 19:00      0.00    750.88   1791808      -901      -901     83.30    203.21      1.30     35.78    132.00     13.52     12.89
05/29 20:00      0.00    750.87   1791292      -901      -901     82.94    231.27      1.51     39.32    111.41     13.34     12.89
05/29 21:00      0.00    750.88   1791808      ----      ----     77.79    166.09      1.12     49.29      1.80     13.44     12.89
05/29 22:00      ----      ----      ----      ----      ----      ----      ----      ----      ----      ----      ----      ----
05/29 23:00      ----      ----      ----      ----      ----      ----      ----      ----      ----      ----      ----      ----

    

 

Big Cabin Creek



    
SHEF ID:       BGCO2     Big Cabin Creek near Big Cabin,
STATION TYPE:  

               PRECIP     STAGE  STAGE(2)  RIV-FLOW  BAT-LOAD
                   in        ft        ft       cfs      volt
              Ccp-Rev   Ccp-Rev   Ccp-Rev   Ccp-Rev   Ccp-Rev
(US/Central)
05/29 00:00      0.00     15.72     15.73       864     12.65
05/29 01:00      0.00     15.51     15.54       765     12.57
05/29 02:00      0.00     15.32     15.36       674     12.65
05/29 03:00      0.00     15.16     15.17       603     12.57
05/29 04:00      0.00     15.01     15.05       542     12.57
05/29 05:00      0.00     14.89     14.89       496     12.57
05/29 06:00      0.00     14.78     14.82       455     12.57
05/29 07:00      0.00     14.67     14.70       415     12.57
05/29 08:00      0.00     14.58     14.60       385     12.65
05/29 09:00      0.00     14.49     14.51       363     13.21
05/29 10:00      0.00     14.42     14.42       345     13.44
05/29 11:00      0.00     14.36     14.37       330     13.37
05/29 12:00      0.00     14.30     14.30       315     13.53
05/29 13:00      0.00     14.25     14.22       303     13.44
05/29 14:00      0.00     14.20     14.19       291     13.37
05/29 15:00      0.00     14.15     14.13       279     13.37
05/29 16:00      0.00     14.11     14.09       270     13.29
05/29 17:00      0.00     14.07     14.05       261     13.05
05/29 18:00      0.00     14.03     14.02       252     12.81
05/29 19:00      0.00     14.00     13.98       245     12.81
05/29 20:00      0.00     13.97     13.95       239     12.65
05/29 21:00      0.00     13.93     13.93       230     12.65
05/29 22:00      ----      ----      ----      ----      ----
05/29 23:00      ----      ----      ----      ----      ----

    

 

Spavinaw Lake (Lower)




 

Hudson Lake



    
SHEF ID:       MFDO2     Lake Hudson near Locust Grove, O
STATION TYPE:  RESERVOIR

               PRECIP ELEVATION   STORAGE   TW-ELEV    INFLOW   RELEASE  AIR-TEMP  WIND-DIRWIND-SPEED REL-HUMID SOLAR-RAD   VOLTAGE  BAT-LOAD
                   in        ft     ac-ft        ft       cfs       cfs         F       deg       mph         %      W/m2      volt      volt
              Ccp-Rev   Ccp-Rev   Ccp-Rev   Ccp-Rev  Regi-Rev  Regi-Rev   Ccp-Rev   Ccp-Rev   Ccp-Rev   Ccp-Rev   Ccp-Rev   Ccp-Rev   Ccp-Rev
(US/Central)
05/29 00:00      0.00    626.86    296926    574.16      -901      -901     65.95    135.00      0.40     82.06      0.00     12.79     12.25
05/29 01:00      0.00    626.75    295422    574.22      -901      -901     65.28    146.80      0.40     85.52      0.00     12.76     12.17
05/29 02:00      0.00    626.65    294055    574.17      -901      -901     64.87    203.20      1.10     87.79      0.00     12.74     12.33
05/29 03:00      0.00    626.54    292552    574.18      -901      -901     62.47    130.20      1.50     92.45      0.00     12.72     12.17
05/29 04:00      0.00    626.43    291048    574.25      -901      -901     62.31    151.80      0.80     92.05      0.00     12.70     12.17
05/29 05:00      0.00    626.32    289544    574.22      -901      -901     62.49    155.60      1.00     90.61      0.00     12.69     12.09
05/29 06:00      0.00    626.21    288041    574.27      -901      -901     59.97    141.60      1.30     95.08      0.00     12.68     12.17
05/29 07:00      0.00    626.09    286400    574.19      -901      -901     60.69    131.90      0.50     94.27     31.20     12.70     12.17
05/29 08:00      0.00    625.99    285037    574.17      -901      -901     65.37    140.50      0.90     81.81    181.40     12.78     12.09
05/29 09:00      0.00    625.90    283844    574.25      -901      -901     71.02    287.60      0.80     72.27    380.40     13.35     12.17
05/29 10:00      0.00    625.82    282783    574.23      -901      -901     74.77    299.20      1.90     60.18    547.20     13.59     12.73
05/29 11:00      0.00    625.73    281590    574.20      -901      -901     77.43    286.40      2.50     54.21    680.00     13.68     12.89
05/29 12:00      0.00    625.65    280529    574.16      -901      -901     79.48    286.70      3.40     50.21    488.10     13.04     13.05
05/29 13:00      0.00    625.56    279336    574.17      -901      -901     81.37    285.30      3.50     44.14     44.40     12.98     12.49
05/29 14:00      0.00    625.47    278142    574.15      -901      -901     83.44    285.90      3.20     36.46     43.30     12.96     12.41
05/29 15:00      0.00    625.45    277877    574.15      -901      -901     84.52    286.30      3.40     32.73     43.00     12.93     12.33
05/29 16:00      0.00    625.40    277214    574.15      -901      -901     85.46    283.80      3.70     31.52    404.90     12.92     12.33
05/29 17:00      0.00    625.36    276684    574.14      -901      -901     86.79    282.70      3.70     28.05    631.10     12.90     12.25
05/29 18:00      0.00    625.36    276684    574.11      -901      -901     87.42    282.80      2.40     28.76    469.10     13.29     12.25
05/29 19:00      0.00    625.34    276418    574.07      -901      -901     86.07    285.50      1.60     31.92    178.90     12.98     12.65
05/29 20:00      0.00    625.25    275225    574.07      -901      -901     82.63    263.50      1.80     41.78    118.40     12.88     12.41
05/29 21:00      0.00    625.18    274297    574.04      ----      ----     76.26     61.40      0.50     62.44      3.70     12.85     12.25
05/29 22:00      ----      ----      ----      ----      ----      ----      ----      ----      ----      ----      ----      ----      ----
05/29 23:00      ----      ----      ----      ----      ----      ----      ----      ----      ----      ----      ----      ----      ----